sensor_id;sensor_type;location;lat;lon;timestamp;P1;durP1;ratioP1;P2;durP2;ratioP2
57643;SDS011;43474;46.510;6.686;2023-08-17T00:00:11;3.50;;;2.45;;
57643;SDS011;43474;46.510;6.686;2023-08-17T00:03:00;4.18;;;2.10;;
57643;SDS011;43474;46.510;6.686;2023-08-17T00:05:25;2.65;;;2.10;;
57643;SDS011;43474;46.510;6.686;2023-08-17T00:07:51;4.65;;;2.20;;
57643;SDS011;43474;46.510;6.686;2023-08-17T00:10:17;4.10;;;2.22;;
57643;SDS011;43474;46.510;6.686;2023-08-17T00:12:43;2.47;;;1.80;;
57643;SDS011;43474;46.510;6.686;2023-08-17T00:15:09;2.42;;;1.90;;
57643;SDS011;43474;46.510;6.686;2023-08-17T00:17:35;3.13;;;1.90;;
57643;SDS011;43474;46.510;6.686;2023-08-17T00:20:00;3.50;;;1.90;;
57643;SDS011;43474;46.510;6.686;2023-08-17T00:22:26;2.03;;;1.63;;
57643;SDS011;43474;46.510;6.686;2023-08-17T00:24:51;1.88;;;1.67;;
57643;SDS011;43474;46.510;6.686;2023-08-17T00:27:17;5.90;;;1.90;;
57643;SDS011;43474;46.510;6.686;2023-08-17T00:29:42;3.97;;;2.03;;
57643;SDS011;43474;46.510;6.686;2023-08-17T00:32:08;3.83;;;2.00;;
57643;SDS011;43474;46.510;6.686;2023-08-17T00:34:34;1.90;;;1.70;;
57643;SDS011;43474;46.510;6.686;2023-08-17T00:36:59;2.33;;;1.77;;
57643;SDS011;43474;46.510;6.686;2023-08-17T00:39:25;4.05;;;1.95;;
57643;SDS011;43474;46.510;6.686;2023-08-17T00:41:51;4.13;;;1.80;;
57643;SDS011;43474;46.510;6.686;2023-08-17T00:44:16;2.10;;;1.90;;
57643;SDS011;43474;46.510;6.686;2023-08-17T00:46:42;3.47;;;2.00;;
57643;SDS011;43474;46.510;6.686;2023-08-17T00:49:08;5.68;;;1.83;;
57643;SDS011;43474;46.510;6.686;2023-08-17T00:51:35;2.97;;;1.90;;
57643;SDS011;43474;46.510;6.686;2023-08-17T00:54:01;4.25;;;2.28;;
57643;SDS011;43474;46.510;6.686;2023-08-17T00:56:27;3.15;;;2.10;;
57643;SDS011;43474;46.510;6.686;2023-08-17T00:58:52;2.42;;;1.90;;
57643;SDS011;43474;46.510;6.686;2023-08-17T01:01:19;2.40;;;1.90;;
57643;SDS011;43474;46.510;6.686;2023-08-17T01:03:45;3.42;;;2.10;;
57643;SDS011;43474;46.510;6.686;2023-08-17T01:06:11;2.88;;;1.73;;
57643;SDS011;43474;46.510;6.686;2023-08-17T01:08:37;2.22;;;1.83;;
57643;SDS011;43474;46.510;6.686;2023-08-17T01:11:19;3.33;;;1.65;;
57643;SDS011;43474;46.510;6.686;2023-08-17T01:13:54;2.95;;;1.85;;
57643;SDS011;43474;46.510;6.686;2023-08-17T01:16:27;2.90;;;2.20;;
57643;SDS011;43474;46.510;6.686;2023-08-17T01:18:58;3.20;;;1.88;;
57643;SDS011;43474;46.510;6.686;2023-08-17T01:21:29;2.33;;;1.80;;
57643;SDS011;43474;46.510;6.686;2023-08-17T01:24:03;2.72;;;1.90;;
57643;SDS011;43474;46.510;6.686;2023-08-17T01:26:30;2.80;;;2.03;;
57643;SDS011;43474;46.510;6.686;2023-08-17T01:28:55;1.95;;;1.70;;
57643;SDS011;43474;46.510;6.686;2023-08-17T01:31:23;4.15;;;1.90;;
57643;SDS011;43474;46.510;6.686;2023-08-17T01:33:56;3.88;;;2.13;;
57643;SDS011;43474;46.510;6.686;2023-08-17T01:36:37;2.55;;;1.70;;
57643;SDS011;43474;46.510;6.686;2023-08-17T01:39:07;3.38;;;1.95;;
57643;SDS011;43474;46.510;6.686;2023-08-17T01:41:34;2.88;;;1.90;;
57643;SDS011;43474;46.510;6.686;2023-08-17T01:44:01;2.20;;;1.90;;
57643;SDS011;43474;46.510;6.686;2023-08-17T01:46:30;2.20;;;1.90;;
57643;SDS011;43474;46.510;6.686;2023-08-17T01:48:59;2.20;;;2.00;;
57643;SDS011;43474;46.510;6.686;2023-08-17T01:51:25;4.05;;;2.10;;
57643;SDS011;43474;46.510;6.686;2023-08-17T01:53:50;3.78;;;1.88;;
57643;SDS011;43474;46.510;6.686;2023-08-17T01:56:17;2.65;;;1.88;;
57643;SDS011;43474;46.510;6.686;2023-08-17T01:58:43;1.95;;;1.75;;
57643;SDS011;43474;46.510;6.686;2023-08-17T02:01:08;4.07;;;1.83;;
57643;SDS011;43474;46.510;6.686;2023-08-17T02:03:34;2.78;;;2.20;;
57643;SDS011;43474;46.510;6.686;2023-08-17T02:06:00;2.78;;;2.03;;
57643;SDS011;43474;46.510;6.686;2023-08-17T02:08:25;2.85;;;1.90;;
57643;SDS011;43474;46.510;6.686;2023-08-17T02:10:51;2.10;;;1.88;;
57643;SDS011;43474;46.510;6.686;2023-08-17T02:13:17;4.80;;;2.08;;
57643;SDS011;43474;46.510;6.686;2023-08-17T02:15:44;3.17;;;1.70;;
57643;SDS011;43474;46.510;6.686;2023-08-17T02:18:10;2.70;;;2.13;;
57643;SDS011;43474;46.510;6.686;2023-08-17T02:20:35;2.72;;;1.92;;
57643;SDS011;43474;46.510;6.686;2023-08-17T02:23:01;2.25;;;2.03;;
57643;SDS011;43474;46.510;6.686;2023-08-17T02:25:27;2.47;;;2.10;;
57643;SDS011;43474;46.510;6.686;2023-08-17T02:27:59;4.15;;;2.22;;
57643;SDS011;43474;46.510;6.686;2023-08-17T02:30:25;2.28;;;1.80;;
57643;SDS011;43474;46.510;6.686;2023-08-17T02:32:53;3.00;;;2.13;;
57643;SDS011;43474;46.510;6.686;2023-08-17T02:35:19;2.75;;;1.90;;
57643;SDS011;43474;46.510;6.686;2023-08-17T02:37:44;3.80;;;2.10;;
57643;SDS011;43474;46.510;6.686;2023-08-17T02:40:10;3.17;;;1.88;;
57643;SDS011;43474;46.510;6.686;2023-08-17T02:42:36;3.67;;;2.33;;
57643;SDS011;43474;46.510;6.686;2023-08-17T02:45:02;5.90;;;2.08;;
57643;SDS011;43474;46.510;6.686;2023-08-17T02:47:27;2.13;;;1.80;;
57643;SDS011;43474;46.510;6.686;2023-08-17T02:49:53;2.17;;;1.98;;
57643;SDS011;43474;46.510;6.686;2023-08-17T02:52:18;2.20;;;1.90;;
57643;SDS011;43474;46.510;6.686;2023-08-17T02:54:44;2.00;;;1.80;;
57643;SDS011;43474;46.510;6.686;2023-08-17T02:57:10;3.97;;;2.08;;
57643;SDS011;43474;46.510;6.686;2023-08-17T02:59:36;2.70;;;2.10;;
57643;SDS011;43474;46.510;6.686;2023-08-17T03:02:02;2.80;;;1.90;;
57643;SDS011;43474;46.510;6.686;2023-08-17T03:04:27;3.55;;;2.00;;
57643;SDS011;43474;46.510;6.686;2023-08-17T03:06:53;2.50;;;2.22;;
57643;SDS011;43474;46.510;6.686;2023-08-17T03:09:18;2.97;;;2.47;;
57643;SDS011;43474;46.510;6.686;2023-08-17T03:11:44;2.50;;;1.60;;
57643;SDS011;43474;46.510;6.686;2023-08-17T03:14:09;2.88;;;2.13;;
57643;SDS011;43474;46.510;6.686;2023-08-17T03:16:35;3.58;;;1.98;;
57643;SDS011;43474;46.510;6.686;2023-08-17T03:19:01;3.00;;;2.00;;
57643;SDS011;43474;46.510;6.686;2023-08-17T03:21:26;2.72;;;1.90;;
57643;SDS011;43474;46.510;6.686;2023-08-17T03:23:52;5.25;;;2.17;;
57643;SDS011;43474;46.510;6.686;2023-08-17T03:26:17;3.42;;;2.08;;
57643;SDS011;43474;46.510;6.686;2023-08-17T03:28:43;2.40;;;1.75;;
57643;SDS011;43474;46.510;6.686;2023-08-17T03:31:08;2.38;;;1.88;;
57643;SDS011;43474;46.510;6.686;2023-08-17T03:33:35;4.15;;;1.85;;
57643;SDS011;43474;46.510;6.686;2023-08-17T03:36:01;2.17;;;1.90;;
57643;SDS011;43474;46.510;6.686;2023-08-17T03:38:27;3.60;;;1.83;;
57643;SDS011;43474;46.510;6.686;2023-08-17T03:40:52;2.20;;;2.00;;
57643;SDS011;43474;46.510;6.686;2023-08-17T03:43:18;3.08;;;1.90;;
57643;SDS011;43474;46.510;6.686;2023-08-17T03:45:43;2.47;;;2.00;;
57643;SDS011;43474;46.510;6.686;2023-08-17T03:48:09;2.28;;;2.08;;
57643;SDS011;43474;46.510;6.686;2023-08-17T03:50:35;3.13;;;2.17;;
57643;SDS011;43474;46.510;6.686;2023-08-17T03:53:00;3.03;;;1.90;;
57643;SDS011;43474;46.510;6.686;2023-08-17T03:55:26;2.40;;;2.00;;
57643;SDS011;43474;46.510;6.686;2023-08-17T03:57:52;2.65;;;2.00;;
57643;SDS011;43474;46.510;6.686;2023-08-17T04:00:17;3.38;;;2.17;;
57643;SDS011;43474;46.510;6.686;2023-08-17T04:02:43;3.80;;;2.05;;
57643;SDS011;43474;46.510;6.686;2023-08-17T04:05:09;4.05;;;1.80;;
57643;SDS011;43474;46.510;6.686;2023-08-17T04:07:34;2.28;;;1.92;;
57643;SDS011;43474;46.510;6.686;2023-08-17T04:10:00;3.58;;;2.00;;
57643;SDS011;43474;46.510;6.686;2023-08-17T04:12:26;4.10;;;2.13;;
57643;SDS011;43474;46.510;6.686;2023-08-17T04:14:51;2.67;;;1.90;;
57643;SDS011;43474;46.510;6.686;2023-08-17T04:17:17;3.78;;;2.03;;
57643;SDS011;43474;46.510;6.686;2023-08-17T04:19:42;5.55;;;2.05;;
57643;SDS011;43474;46.510;6.686;2023-08-17T04:22:08;5.35;;;2.33;;
57643;SDS011;43474;46.510;6.686;2023-08-17T04:24:33;2.35;;;2.10;;
57643;SDS011;43474;46.510;6.686;2023-08-17T04:26:59;2.65;;;2.10;;
57643;SDS011;43474;46.510;6.686;2023-08-17T04:29:25;3.47;;;1.83;;
57643;SDS011;43474;46.510;6.686;2023-08-17T04:31:51;4.57;;;1.85;;
57643;SDS011;43474;46.510;6.686;2023-08-17T04:34:16;4.75;;;2.20;;
57643;SDS011;43474;46.510;6.686;2023-08-17T04:36:42;2.75;;;2.10;;
57643;SDS011;43474;46.510;6.686;2023-08-17T04:39:07;2.15;;;1.95;;
57643;SDS011;43474;46.510;6.686;2023-08-17T04:41:34;3.55;;;2.00;;
57643;SDS011;43474;46.510;6.686;2023-08-17T04:44:00;3.00;;;2.20;;
57643;SDS011;43474;46.510;6.686;2023-08-17T04:46:26;2.72;;;2.08;;
57643;SDS011;43474;46.510;6.686;2023-08-17T04:48:51;3.05;;;1.90;;
57643;SDS011;43474;46.510;6.686;2023-08-17T04:51:17;4.53;;;2.35;;
57643;SDS011;43474;46.510;6.686;2023-08-17T04:53:43;2.13;;;1.80;;
57643;SDS011;43474;46.510;6.686;2023-08-17T04:56:09;3.97;;;2.03;;
57643;SDS011;43474;46.510;6.686;2023-08-17T04:58:34;3.17;;;1.88;;
57643;SDS011;43474;46.510;6.686;2023-08-17T05:01:00;3.33;;;2.45;;
57643;SDS011;43474;46.510;6.686;2023-08-17T05:03:26;2.78;;;2.05;;
57643;SDS011;43474;46.510;6.686;2023-08-17T05:05:52;5.50;;;2.35;;
57643;SDS011;43474;46.510;6.686;2023-08-17T05:08:18;2.45;;;2.20;;
57643;SDS011;43474;46.510;6.686;2023-08-17T05:10:44;3.47;;;2.25;;
57643;SDS011;43474;46.510;6.686;2023-08-17T05:13:09;3.58;;;2.47;;
57643;SDS011;43474;46.510;6.686;2023-08-17T05:15:35;4.90;;;3.15;;
57643;SDS011;43474;46.510;6.686;2023-08-17T05:18:00;2.47;;;1.70;;
57643;SDS011;43474;46.510;6.686;2023-08-17T05:20:26;5.60;;;2.50;;
57643;SDS011;43474;46.510;6.686;2023-08-17T05:22:51;3.90;;;2.38;;
57643;SDS011;43474;46.510;6.686;2023-08-17T05:25:17;3.38;;;2.40;;
57643;SDS011;43474;46.510;6.686;2023-08-17T05:27:42;3.88;;;2.20;;
57643;SDS011;43474;46.510;6.686;2023-08-17T05:30:08;4.05;;;2.25;;
57643;SDS011;43474;46.510;6.686;2023-08-17T05:32:34;3.75;;;2.58;;
57643;SDS011;43474;46.510;6.686;2023-08-17T05:34:59;3.67;;;2.38;;
57643;SDS011;43474;46.510;6.686;2023-08-17T05:37:25;3.50;;;2.50;;
57643;SDS011;43474;46.510;6.686;2023-08-17T05:39:50;5.30;;;2.28;;
57643;SDS011;43474;46.510;6.686;2023-08-17T05:42:16;3.47;;;2.95;;
57643;SDS011;43474;46.510;6.686;2023-08-17T05:44:41;4.03;;;2.97;;
57643;SDS011;43474;46.510;6.686;2023-08-17T05:47:07;2.90;;;2.63;;
57643;SDS011;43474;46.510;6.686;2023-08-17T05:49:33;5.60;;;3.17;;
57643;SDS011;43474;46.510;6.686;2023-08-17T05:51:58;3.85;;;3.15;;
57643;SDS011;43474;46.510;6.686;2023-08-17T05:54:24;3.53;;;3.08;;
57643;SDS011;43474;46.510;6.686;2023-08-17T05:56:49;6.43;;;3.30;;
57643;SDS011;43474;46.510;6.686;2023-08-17T05:59:15;3.88;;;3.30;;
57643;SDS011;43474;46.510;6.686;2023-08-17T06:01:40;4.85;;;2.90;;
57643;SDS011;43474;46.510;6.686;2023-08-17T06:04:06;3.10;;;2.80;;
57643;SDS011;43474;46.510;6.686;2023-08-17T06:06:32;7.05;;;3.05;;
57643;SDS011;43474;46.510;6.686;2023-08-17T06:08:58;5.00;;;2.90;;
57643;SDS011;43474;46.510;6.686;2023-08-17T06:11:23;4.70;;;3.35;;
57643;SDS011;43474;46.510;6.686;2023-08-17T06:13:49;4.95;;;2.92;;
57643;SDS011;43474;46.510;6.686;2023-08-17T06:16:15;5.40;;;3.50;;
57643;SDS011;43474;46.510;6.686;2023-08-17T06:18:41;4.65;;;3.40;;
57643;SDS011;43474;46.510;6.686;2023-08-17T06:21:07;4.88;;;3.47;;
57643;SDS011;43474;46.510;6.686;2023-08-17T06:23:33;4.50;;;3.20;;
57643;SDS011;43474;46.510;6.686;2023-08-17T06:25:59;4.40;;;3.40;;
57643;SDS011;43474;46.510;6.686;2023-08-17T06:28:25;4.60;;;3.08;;
57643;SDS011;43474;46.510;6.686;2023-08-17T06:30:55;5.63;;;3.20;;
57643;SDS011;43474;46.510;6.686;2023-08-17T06:33:21;5.72;;;3.55;;
57643;SDS011;43474;46.510;6.686;2023-08-17T06:35:48;4.10;;;3.13;;
57643;SDS011;43474;46.510;6.686;2023-08-17T06:38:14;3.22;;;2.92;;
57643;SDS011;43474;46.510;6.686;2023-08-17T06:40:39;4.85;;;3.30;;
57643;SDS011;43474;46.510;6.686;2023-08-17T06:43:05;5.47;;;3.50;;
57643;SDS011;43474;46.510;6.686;2023-08-17T06:45:31;5.05;;;3.30;;
57643;SDS011;43474;46.510;6.686;2023-08-17T06:47:57;4.13;;;3.50;;
57643;SDS011;43474;46.510;6.686;2023-08-17T06:50:23;5.97;;;3.58;;
57643;SDS011;43474;46.510;6.686;2023-08-17T06:52:50;5.70;;;3.92;;
57643;SDS011;43474;46.510;6.686;2023-08-17T06:55:15;5.13;;;3.50;;
57643;SDS011;43474;46.510;6.686;2023-08-17T06:57:42;5.72;;;3.85;;
57643;SDS011;43474;46.510;6.686;2023-08-17T07:00:08;5.25;;;3.33;;
57643;SDS011;43474;46.510;6.686;2023-08-17T07:02:34;4.35;;;3.63;;
57643;SDS011;43474;46.510;6.686;2023-08-17T07:05:00;4.43;;;3.47;;
57643;SDS011;43474;46.510;6.686;2023-08-17T07:07:26;5.38;;;3.65;;
57643;SDS011;43474;46.510;6.686;2023-08-17T07:09:51;5.90;;;3.30;;
57643;SDS011;43474;46.510;6.686;2023-08-17T07:12:17;7.28;;;3.55;;
57643;SDS011;43474;46.510;6.686;2023-08-17T07:14:44;5.25;;;3.50;;
57643;SDS011;43474;46.510;6.686;2023-08-17T07:17:10;4.85;;;3.53;;
57643;SDS011;43474;46.510;6.686;2023-08-17T07:19:35;5.80;;;3.67;;
57643;SDS011;43474;46.510;6.686;2023-08-17T07:22:01;4.88;;;3.80;;
57643;SDS011;43474;46.510;6.686;2023-08-17T07:24:27;4.10;;;3.55;;
57643;SDS011;43474;46.510;6.686;2023-08-17T07:26:52;3.75;;;3.45;;
57643;SDS011;43474;46.510;6.686;2023-08-17T07:29:18;7.82;;;3.95;;
57643;SDS011;43474;46.510;6.686;2023-08-17T07:31:44;3.95;;;3.50;;
57643;SDS011;43474;46.510;6.686;2023-08-17T07:34:09;4.75;;;3.67;;
57643;SDS011;43474;46.510;6.686;2023-08-17T07:36:35;5.65;;;3.80;;
57643;SDS011;43474;46.510;6.686;2023-08-17T07:39:00;4.95;;;3.67;;
57643;SDS011;43474;46.510;6.686;2023-08-17T07:41:27;6.00;;;3.85;;
57643;SDS011;43474;46.510;6.686;2023-08-17T07:43:52;5.35;;;3.60;;
57643;SDS011;43474;46.510;6.686;2023-08-17T07:46:18;5.25;;;3.75;;
57643;SDS011;43474;46.510;6.686;2023-08-17T07:48:43;4.97;;;3.63;;
57643;SDS011;43474;46.510;6.686;2023-08-17T07:51:09;5.50;;;3.65;;
57643;SDS011;43474;46.510;6.686;2023-08-17T07:53:35;7.03;;;3.50;;
57643;SDS011;43474;46.510;6.686;2023-08-17T07:56:01;5.85;;;3.40;;
57643;SDS011;43474;46.510;6.686;2023-08-17T07:58:26;6.90;;;3.40;;
57643;SDS011;43474;46.510;6.686;2023-08-17T08:00:52;6.15;;;3.50;;
57643;SDS011;43474;46.510;6.686;2023-08-17T08:03:17;7.43;;;3.60;;
57643;SDS011;43474;46.510;6.686;2023-08-17T08:05:43;5.43;;;3.92;;
57643;SDS011;43474;46.510;6.686;2023-08-17T08:08:09;5.20;;;3.80;;
57643;SDS011;43474;46.510;6.686;2023-08-17T08:10:35;4.60;;;3.50;;
57643;SDS011;43474;46.510;6.686;2023-08-17T08:13:00;5.95;;;3.88;;
57643;SDS011;43474;46.510;6.686;2023-08-17T08:15:26;5.90;;;3.47;;
57643;SDS011;43474;46.510;6.686;2023-08-17T08:17:51;6.75;;;3.80;;
57643;SDS011;43474;46.510;6.686;2023-08-17T08:20:17;4.30;;;3.20;;
57643;SDS011;43474;46.510;6.686;2023-08-17T08:22:42;3.67;;;3.28;;
57643;SDS011;43474;46.510;6.686;2023-08-17T08:25:08;5.03;;;2.95;;
57643;SDS011;43474;46.510;6.686;2023-08-17T08:27:34;4.18;;;3.35;;
57643;SDS011;43474;46.510;6.686;2023-08-17T08:29:59;3.85;;;2.90;;
57643;SDS011;43474;46.510;6.686;2023-08-17T08:32:25;4.47;;;3.13;;
57643;SDS011;43474;46.510;6.686;2023-08-17T08:34:50;3.95;;;2.85;;
57643;SDS011;43474;46.510;6.686;2023-08-17T08:37:16;4.65;;;3.20;;
57643;SDS011;43474;46.510;6.686;2023-08-17T08:39:48;5.05;;;3.13;;
57643;SDS011;43474;46.510;6.686;2023-08-17T08:42:18;7.03;;;3.13;;
57643;SDS011;43474;46.510;6.686;2023-08-17T08:44:45;5.93;;;3.25;;
57643;SDS011;43474;46.510;6.686;2023-08-17T08:47:11;4.18;;;3.20;;
57643;SDS011;43474;46.510;6.686;2023-08-17T08:49:39;5.22;;;3.03;;
57643;SDS011;43474;46.510;6.686;2023-08-17T08:52:08;4.03;;;3.10;;
57643;SDS011;43474;46.510;6.686;2023-08-17T08:54:40;3.08;;;2.78;;
57643;SDS011;43474;46.510;6.686;2023-08-17T08:57:08;3.90;;;3.00;;
57643;SDS011;43474;46.510;6.686;2023-08-17T08:59:38;5.07;;;2.90;;
57643;SDS011;43474;46.510;6.686;2023-08-17T09:02:10;5.20;;;3.05;;
57643;SDS011;43474;46.510;6.686;2023-08-17T09:04:39;5.25;;;2.97;;
57643;SDS011;43474;46.510;6.686;2023-08-17T09:07:05;3.25;;;2.95;;
57643;SDS011;43474;46.510;6.686;2023-08-17T09:09:31;3.10;;;2.80;;
57643;SDS011;43474;46.510;6.686;2023-08-17T09:11:58;7.18;;;3.13;;
57643;SDS011;43474;46.510;6.686;2023-08-17T09:14:24;6.85;;;2.95;;
57643;SDS011;43474;46.510;6.686;2023-08-17T09:16:50;8.15;;;3.20;;
57643;SDS011;43474;46.510;6.686;2023-08-17T09:19:15;6.35;;;2.92;;
57643;SDS011;43474;46.510;6.686;2023-08-17T09:21:42;4.38;;;2.80;;
57643;SDS011;43474;46.510;6.686;2023-08-17T09:24:08;3.03;;;2.72;;
57643;SDS011;43474;46.510;6.686;2023-08-17T09:26:33;8.00;;;3.30;;
57643;SDS011;43474;46.510;6.686;2023-08-17T09:28:59;5.30;;;2.80;;
57643;SDS011;43474;46.510;6.686;2023-08-17T09:31:25;6.25;;;3.30;;
57643;SDS011;43474;46.510;6.686;2023-08-17T09:33:51;4.05;;;2.80;;
57643;SDS011;43474;46.510;6.686;2023-08-17T09:36:23;5.80;;;3.40;;
57643;SDS011;43474;46.510;6.686;2023-08-17T09:38:50;4.35;;;2.78;;
57643;SDS011;43474;46.510;6.686;2023-08-17T09:41:19;4.65;;;2.97;;
57643;SDS011;43474;46.510;6.686;2023-08-17T09:43:46;3.88;;;3.13;;
57643;SDS011;43474;46.510;6.686;2023-08-17T09:46:12;5.05;;;2.80;;
57643;SDS011;43474;46.510;6.686;2023-08-17T09:48:38;4.05;;;3.22;;
57643;SDS011;43474;46.510;6.686;2023-08-17T09:51:03;5.78;;;2.92;;
57643;SDS011;43474;46.510;6.686;2023-08-17T09:53:34;6.70;;;3.10;;
57643;SDS011;43474;46.510;6.686;2023-08-17T09:58:27;4.25;;;3.00;;
57643;SDS011;43474;46.510;6.686;2023-08-17T10:00:53;4.93;;;2.90;;
57643;SDS011;43474;46.510;6.686;2023-08-17T10:03:19;4.43;;;3.13;;
57643;SDS011;43474;46.510;6.686;2023-08-17T10:05:46;5.00;;;3.03;;
57643;SDS011;43474;46.510;6.686;2023-08-17T10:08:22;5.00;;;3.15;;
57643;SDS011;43474;46.510;6.686;2023-08-17T10:10:48;4.50;;;2.90;;
57643;SDS011;43474;46.510;6.686;2023-08-17T10:16:40;6.13;;;3.25;;
57643;SDS011;43474;46.510;6.686;2023-08-17T10:22:00;5.30;;;3.10;;
57643;SDS011;43474;46.510;6.686;2023-08-17T10:24:34;4.53;;;3.30;;
57643;SDS011;43474;46.510;6.686;2023-08-17T10:27:02;4.00;;;3.03;;
57643;SDS011;43474;46.510;6.686;2023-08-17T10:29:29;4.30;;;3.50;;
57643;SDS011;43474;46.510;6.686;2023-08-17T10:31:55;8.40;;;3.10;;
57643;SDS011;43474;46.510;6.686;2023-08-17T10:34:22;5.53;;;3.42;;
57643;SDS011;43474;46.510;6.686;2023-08-17T10:36:48;4.75;;;3.28;;
57643;SDS011;43474;46.510;6.686;2023-08-17T10:39:18;6.78;;;3.40;;
57643;SDS011;43474;46.510;6.686;2023-08-17T10:41:48;6.20;;;3.45;;
57643;SDS011;43474;46.510;6.686;2023-08-17T10:44:17;4.68;;;3.10;;
57643;SDS011;43474;46.510;6.686;2023-08-17T10:46:43;6.47;;;3.30;;
57643;SDS011;43474;46.510;6.686;2023-08-17T10:49:26;4.10;;;3.10;;
57643;SDS011;43474;46.510;6.686;2023-08-17T10:52:02;4.63;;;3.30;;
57643;SDS011;43474;46.510;6.686;2023-08-17T10:54:39;6.07;;;3.47;;
57643;SDS011;43474;46.510;6.686;2023-08-17T11:03:04;3.92;;;3.38;;
57643;SDS011;43474;46.510;6.686;2023-08-17T11:08:09;5.85;;;3.30;;
57643;SDS011;43474;46.510;6.686;2023-08-17T11:10:36;3.88;;;3.40;;
57643;SDS011;43474;46.510;6.686;2023-08-17T11:13:03;3.97;;;3.55;;
57643;SDS011;43474;46.510;6.686;2023-08-17T11:15:36;3.78;;;3.33;;
57643;SDS011;43474;46.510;6.686;2023-08-17T11:18:04;3.28;;;2.92;;
57643;SDS011;43474;46.510;6.686;2023-08-17T11:20:31;3.80;;;3.40;;
57643;SDS011;43474;46.510;6.686;2023-08-17T11:22:57;5.32;;;3.20;;
57643;SDS011;43474;46.510;6.686;2023-08-17T11:25:25;4.05;;;3.42;;
57643;SDS011;43474;46.510;6.686;2023-08-17T11:27:51;5.85;;;4.07;;
57643;SDS011;43474;46.510;6.686;2023-08-17T11:30:17;5.95;;;3.60;;
57643;SDS011;43474;46.510;6.686;2023-08-17T11:32:43;5.32;;;3.83;;
57643;SDS011;43474;46.510;6.686;2023-08-17T11:35:08;7.32;;;3.55;;
57643;SDS011;43474;46.510;6.686;2023-08-17T11:37:34;6.43;;;3.53;;
57643;SDS011;43474;46.510;6.686;2023-08-17T11:39:59;7.55;;;3.70;;
57643;SDS011;43474;46.510;6.686;2023-08-17T11:42:25;5.30;;;3.40;;
57643;SDS011;43474;46.510;6.686;2023-08-17T11:44:51;5.85;;;3.72;;
57643;SDS011;43474;46.510;6.686;2023-08-17T11:47:16;6.38;;;3.58;;
57643;SDS011;43474;46.510;6.686;2023-08-17T11:49:42;5.07;;;3.30;;
57643;SDS011;43474;46.510;6.686;2023-08-17T11:52:10;5.85;;;3.30;;
57643;SDS011;43474;46.510;6.686;2023-08-17T11:54:39;5.63;;;3.25;;
57643;SDS011;43474;46.510;6.686;2023-08-17T11:57:05;5.20;;;3.30;;
57643;SDS011;43474;46.510;6.686;2023-08-17T11:59:31;6.75;;;3.65;;
57643;SDS011;43474;46.510;6.686;2023-08-17T12:01:58;4.88;;;3.10;;
57643;SDS011;43474;46.510;6.686;2023-08-17T12:04:25;6.25;;;3.22;;
57643;SDS011;43474;46.510;6.686;2023-08-17T12:06:51;5.82;;;3.40;;
57643;SDS011;43474;46.510;6.686;2023-08-17T12:09:18;4.00;;;3.38;;
57643;SDS011;43474;46.510;6.686;2023-08-17T12:11:47;4.18;;;2.97;;
57643;SDS011;43474;46.510;6.686;2023-08-17T12:14:12;6.47;;;3.60;;
57643;SDS011;43474;46.510;6.686;2023-08-17T12:16:47;5.85;;;3.55;;
57643;SDS011;43474;46.510;6.686;2023-08-17T12:19:14;3.47;;;2.90;;
57643;SDS011;43474;46.510;6.686;2023-08-17T12:21:42;5.38;;;3.33;;
57643;SDS011;43474;46.510;6.686;2023-08-17T12:24:09;4.80;;;3.40;;
57643;SDS011;43474;46.510;6.686;2023-08-17T12:26:42;5.28;;;3.05;;
57643;SDS011;43474;46.510;6.686;2023-08-17T12:29:09;5.83;;;3.20;;
57643;SDS011;43474;46.510;6.686;2023-08-17T12:31:35;4.35;;;3.25;;
57643;SDS011;43474;46.510;6.686;2023-08-17T12:34:01;5.35;;;2.90;;
57643;SDS011;43474;46.510;6.686;2023-08-17T12:36:26;4.10;;;3.20;;
57643;SDS011;43474;46.510;6.686;2023-08-17T12:38:52;5.32;;;3.10;;
57643;SDS011;43474;46.510;6.686;2023-08-17T12:41:18;7.15;;;3.20;;
57643;SDS011;43474;46.510;6.686;2023-08-17T12:43:44;3.35;;;3.00;;
57643;SDS011;43474;46.510;6.686;2023-08-17T12:46:09;3.50;;;3.20;;
57643;SDS011;43474;46.510;6.686;2023-08-17T12:48:36;4.38;;;2.85;;
57643;SDS011;43474;46.510;6.686;2023-08-17T12:51:02;5.70;;;2.72;;
57643;SDS011;43474;46.510;6.686;2023-08-17T12:53:28;3.55;;;3.10;;
57643;SDS011;43474;46.510;6.686;2023-08-17T12:55:54;4.30;;;2.90;;
57643;SDS011;43474;46.510;6.686;2023-08-17T12:58:19;4.50;;;2.90;;
57643;SDS011;43474;46.510;6.686;2023-08-17T13:00:45;3.40;;;2.83;;
57643;SDS011;43474;46.510;6.686;2023-08-17T13:03:11;6.43;;;3.20;;
57643;SDS011;43474;46.510;6.686;2023-08-17T13:05:36;4.90;;;3.30;;
57643;SDS011;43474;46.510;6.686;2023-08-17T13:08:02;4.93;;;3.00;;
57643;SDS011;43474;46.510;6.686;2023-08-17T13:10:28;3.83;;;2.83;;
57643;SDS011;43474;46.510;6.686;2023-08-17T13:12:54;3.33;;;3.03;;
57643;SDS011;43474;46.510;6.686;2023-08-17T13:15:21;3.40;;;2.90;;
57643;SDS011;43474;46.510;6.686;2023-08-17T13:17:47;5.07;;;2.72;;
57643;SDS011;43474;46.510;6.686;2023-08-17T13:20:13;3.47;;;2.75;;
57643;SDS011;43474;46.510;6.686;2023-08-17T13:22:39;4.40;;;3.30;;
57643;SDS011;43474;46.510;6.686;2023-08-17T13:25:04;3.78;;;2.83;;
57643;SDS011;43474;46.510;6.686;2023-08-17T13:27:31;3.63;;;3.13;;
57643;SDS011;43474;46.510;6.686;2023-08-17T13:29:56;3.55;;;2.80;;
57643;SDS011;43474;46.510;6.686;2023-08-17T13:32:24;4.50;;;3.08;;
57643;SDS011;43474;46.510;6.686;2023-08-17T13:34:50;4.93;;;3.03;;
57643;SDS011;43474;46.510;6.686;2023-08-17T13:37:19;3.38;;;3.08;;
57643;SDS011;43474;46.510;6.686;2023-08-17T13:39:45;4.35;;;2.80;;
57643;SDS011;43474;46.510;6.686;2023-08-17T13:42:12;2.90;;;2.50;;
57643;SDS011;43474;46.510;6.686;2023-08-17T13:44:37;3.60;;;2.75;;
57643;SDS011;43474;46.510;6.686;2023-08-17T13:47:04;3.92;;;2.63;;
57643;SDS011;43474;46.510;6.686;2023-08-17T13:49:29;4.13;;;3.00;;
57643;SDS011;43474;46.510;6.686;2023-08-17T13:51:55;3.22;;;2.80;;
57643;SDS011;43474;46.510;6.686;2023-08-17T13:54:22;5.22;;;2.85;;
57643;SDS011;43474;46.510;6.686;2023-08-17T13:56:48;4.13;;;3.05;;
57643;SDS011;43474;46.510;6.686;2023-08-17T13:59:13;3.85;;;2.70;;
57643;SDS011;43474;46.510;6.686;2023-08-17T14:01:39;4.82;;;2.95;;
57643;SDS011;43474;46.510;6.686;2023-08-17T14:04:05;3.75;;;2.75;;
57643;SDS011;43474;46.510;6.686;2023-08-17T14:06:37;3.97;;;2.72;;
57643;SDS011;43474;46.510;6.686;2023-08-17T14:09:05;3.30;;;2.60;;
57643;SDS011;43474;46.510;6.686;2023-08-17T14:11:31;3.53;;;2.80;;
57643;SDS011;43474;46.510;6.686;2023-08-17T14:13:56;3.45;;;3.00;;
57643;SDS011;43474;46.510;6.686;2023-08-17T14:16:22;3.08;;;2.75;;
57643;SDS011;43474;46.510;6.686;2023-08-17T14:18:47;3.65;;;2.88;;
57643;SDS011;43474;46.510;6.686;2023-08-17T14:21:13;2.75;;;2.40;;
57643;SDS011;43474;46.510;6.686;2023-08-17T14:23:39;4.20;;;2.83;;
57643;SDS011;43474;46.510;6.686;2023-08-17T14:26:05;3.70;;;2.53;;
57643;SDS011;43474;46.510;6.686;2023-08-17T14:28:30;3.78;;;2.58;;
57643;SDS011;43474;46.510;6.686;2023-08-17T14:30:56;3.95;;;3.00;;
57643;SDS011;43474;46.510;6.686;2023-08-17T14:33:21;4.20;;;2.90;;
57643;SDS011;43474;46.510;6.686;2023-08-17T14:35:48;4.95;;;2.50;;
57643;SDS011;43474;46.510;6.686;2023-08-17T14:38:13;3.55;;;2.50;;
57643;SDS011;43474;46.510;6.686;2023-08-17T14:40:43;3.00;;;2.60;;
57643;SDS011;43474;46.510;6.686;2023-08-17T14:43:10;3.55;;;2.70;;
57643;SDS011;43474;46.510;6.686;2023-08-17T14:45:42;3.28;;;2.65;;
57643;SDS011;43474;46.510;6.686;2023-08-17T14:48:08;3.15;;;2.70;;
57643;SDS011;43474;46.510;6.686;2023-08-17T14:50:35;3.17;;;2.88;;
57643;SDS011;43474;46.510;6.686;2023-08-17T14:53:01;3.65;;;2.50;;
57643;SDS011;43474;46.510;6.686;2023-08-17T14:55:32;3.00;;;2.30;;
57643;SDS011;43474;46.510;6.686;2023-08-17T14:57:58;6.40;;;2.80;;
57643;SDS011;43474;46.510;6.686;2023-08-17T15:00:24;4.00;;;2.80;;